sensor_id;sensor_type;location;lat;lon;timestamp;pressure;altitude;pressure_sealevel;temperature;humidity
42705;BME280;28342;42.594;23.414;2023-04-04T00:01:55;93044.63;;;8.07;100.00
42705;BME280;28342;42.594;23.414;2023-04-04T00:04:21;93056.97;;;7.82;100.00
42705;BME280;28342;42.594;23.414;2023-04-04T00:06:46;93044.22;;;7.84;100.00
42705;BME280;28342;42.594;23.414;2023-04-04T00:09:12;93037.84;;;7.85;100.00
42705;BME280;28342;42.594;23.414;2023-04-04T00:11:39;93041.50;;;7.93;100.00
42705;BME280;28342;42.594;23.414;2023-04-04T00:14:05;93056.06;;;7.99;100.00
42705;BME280;28342;42.594;23.414;2023-04-04T00:16:30;93051.00;;;8.06;100.00
42705;BME280;28342;42.594;23.414;2023-04-04T00:18:56;93059.78;;;7.98;100.00
42705;BME280;28342;42.594;23.414;2023-04-04T00:21:21;93052.09;;;7.72;100.00
42705;BME280;28342;42.594;23.414;2023-04-04T00:23:49;93034.06;;;7.74;100.00
42705;BME280;28342;42.594;23.414;2023-04-04T00:26:15;93045.38;;;7.74;100.00
42705;BME280;28342;42.594;23.414;2023-04-04T00:28:41;93040.03;;;7.83;100.00
42705;BME280;28342;42.594;23.414;2023-04-04T00:31:07;93041.78;;;7.79;100.00
42705;BME280;28342;42.594;23.414;2023-04-04T00:33:33;93042.69;;;7.83;100.00
42705;BME280;28342;42.594;23.414;2023-04-04T00:35:59;93028.72;;;7.62;100.00
42705;BME280;28342;42.594;23.414;2023-04-04T00:38:24;93029.03;;;7.81;100.00
42705;BME280;28342;42.594;23.414;2023-04-04T00:40:49;93021.44;;;7.79;100.00
42705;BME280;28342;42.594;23.414;2023-04-04T00:43:16;93031.03;;;7.84;100.00
42705;BME280;28342;42.594;23.414;2023-04-04T00:45:42;93032.34;;;7.90;100.00
42705;BME280;28342;42.594;23.414;2023-04-04T00:48:08;93012.78;;;7.91;100.00
42705;BME280;28342;42.594;23.414;2023-04-04T00:50:33;93002.88;;;7.88;100.00
42705;BME280;28342;42.594;23.414;2023-04-04T00:52:59;93010.94;;;8.04;100.00
42705;BME280;28342;42.594;23.414;2023-04-04T00:55:25;92990.13;;;7.90;100.00
42705;BME280;28342;42.594;23.414;2023-04-04T00:57:51;93005.66;;;8.04;100.00
42705;BME280;28342;42.594;23.414;2023-04-04T01:00:17;93018.88;;;8.04;100.00
42705;BME280;28342;42.594;23.414;2023-04-04T01:02:42;93015.88;;;7.93;100.00
42705;BME280;28342;42.594;23.414;2023-04-04T01:05:08;93016.06;;;7.88;100.00
42705;BME280;28342;42.594;23.414;2023-04-04T01:07:34;93003.75;;;7.92;100.00
42705;BME280;28342;42.594;23.414;2023-04-04T01:10:00;93025.34;;;8.06;100.00
42705;BME280;28342;42.594;23.414;2023-04-04T01:12:28;93027.91;;;8.15;100.00
42705;BME280;28342;42.594;23.414;2023-04-04T01:14:54;93028.88;;;7.98;100.00
42705;BME280;28342;42.594;23.414;2023-04-04T01:17:19;93023.56;;;7.86;100.00
42705;BME280;28342;42.594;23.414;2023-04-04T01:19:51;93010.25;;;7.62;100.00
42705;BME280;28342;42.594;23.414;2023-04-04T01:22:18;93038.69;;;7.77;100.00
42705;BME280;28342;42.594;23.414;2023-04-04T01:24:45;93017.34;;;7.70;100.00
42705;BME280;28342;42.594;23.414;2023-04-04T01:27:12;93039.19;;;7.91;100.00
42705;BME280;28342;42.594;23.414;2023-04-04T01:29:37;93034.94;;;7.78;100.00
42705;BME280;28342;42.594;23.414;2023-04-04T01:32:15;93043.03;;;7.94;100.00
42705;BME280;28342;42.594;23.414;2023-04-04T01:37:32;93023.13;;;7.96;100.00
42705;BME280;28342;42.594;23.414;2023-04-04T01:40:10;93037.25;;;8.00;99.35
42705;BME280;28342;42.594;23.414;2023-04-04T01:42:37;93014.28;;;7.80;96.19
42705;BME280;28342;42.594;23.414;2023-04-04T01:45:06;93028.41;;;7.96;98.80
42705;BME280;28342;42.594;23.414;2023-04-04T01:47:40;93018.94;;;7.95;100.00
42705;BME280;28342;42.594;23.414;2023-04-04T01:50:07;93006.34;;;7.80;100.00
42705;BME280;28342;42.594;23.414;2023-04-04T01:52:32;93010.94;;;8.04;99.18
42705;BME280;28342;42.594;23.414;2023-04-04T01:54:59;93013.63;;;8.16;99.16
42705;BME280;28342;42.594;23.414;2023-04-04T01:57:24;93020.78;;;8.16;100.00
42705;BME280;28342;42.594;23.414;2023-04-04T01:59:50;93018.31;;;8.10;100.00
42705;BME280;28342;42.594;23.414;2023-04-04T02:02:15;93024.28;;;8.20;100.00
42705;BME280;28342;42.594;23.414;2023-04-04T02:04:41;93020.84;;;8.07;98.80
42705;BME280;28342;42.594;23.414;2023-04-04T02:07:12;93009.84;;;8.05;99.03
42705;BME280;28342;42.594;23.414;2023-04-04T02:09:39;93019.56;;;8.25;98.23
42705;BME280;28342;42.594;23.414;2023-04-04T02:12:04;93013.06;;;8.23;98.91
42705;BME280;28342;42.594;23.414;2023-04-04T02:14:30;93019.88;;;8.24;99.98
42705;BME280;28342;42.594;23.414;2023-04-04T02:16:55;93004.69;;;8.21;99.01
42705;BME280;28342;42.594;23.414;2023-04-04T02:19:21;93011.78;;;8.29;98.70
42705;BME280;28342;42.594;23.414;2023-04-04T02:21:46;93007.88;;;8.26;98.36
42705;BME280;28342;42.594;23.414;2023-04-04T02:24:12;93008.94;;;8.34;97.11
42705;BME280;28342;42.594;23.414;2023-04-04T02:26:37;92995.50;;;8.39;96.51
42705;BME280;28342;42.594;23.414;2023-04-04T02:29:03;93006.06;;;8.39;97.12
42705;BME280;28342;42.594;23.414;2023-04-04T02:31:29;92997.66;;;8.25;97.59
42705;BME280;28342;42.594;23.414;2023-04-04T02:33:54;93009.03;;;8.37;97.82
42705;BME280;28342;42.594;23.414;2023-04-04T02:36:20;92996.81;;;8.33;97.41
42705;BME280;28342;42.594;23.414;2023-04-04T02:38:45;93001.97;;;8.29;97.21
42705;BME280;28342;42.594;23.414;2023-04-04T02:41:11;93013.31;;;8.30;98.01
42705;BME280;28342;42.594;23.414;2023-04-04T02:43:36;93005.81;;;8.32;98.13
42705;BME280;28342;42.594;23.414;2023-04-04T02:46:01;93004.28;;;8.31;98.05
42705;BME280;28342;42.594;23.414;2023-04-04T02:48:27;93006.72;;;8.36;97.98
42705;BME280;28342;42.594;23.414;2023-04-04T02:50:53;93013.56;;;8.37;98.17
42705;BME280;28342;42.594;23.414;2023-04-04T02:53:18;92999.91;;;8.35;97.61
42705;BME280;28342;42.594;23.414;2023-04-04T02:55:43;93006.59;;;8.32;98.15
42705;BME280;28342;42.594;23.414;2023-04-04T02:58:09;93000.31;;;8.25;98.40
42705;BME280;28342;42.594;23.414;2023-04-04T03:00:34;93008.03;;;8.30;98.70
42705;BME280;28342;42.594;23.414;2023-04-04T03:03:00;92971.41;;;7.95;99.38
42705;BME280;28342;42.594;23.414;2023-04-04T03:05:26;93004.03;;;8.24;98.99
42705;BME280;28342;42.594;23.414;2023-04-04T03:07:55;93001.63;;;8.19;99.06
42705;BME280;28342;42.594;23.414;2023-04-04T03:10:22;92995.22;;;8.07;99.06
42705;BME280;28342;42.594;23.414;2023-04-04T03:12:48;93007.59;;;8.28;98.89
42705;BME280;28342;42.594;23.414;2023-04-04T03:15:13;92982.00;;;8.07;98.23
42705;BME280;28342;42.594;23.414;2023-04-04T03:17:39;92996.66;;;8.17;97.88
42705;BME280;28342;42.594;23.414;2023-04-04T03:20:05;93001.06;;;8.25;97.45
42705;BME280;28342;42.594;23.414;2023-04-04T03:22:30;93006.91;;;8.19;97.71
42705;BME280;28342;42.594;23.414;2023-04-04T03:24:56;92997.78;;;8.16;98.05
42705;BME280;28342;42.594;23.414;2023-04-04T03:27:22;92979.59;;;8.02;97.84
42705;BME280;28342;42.594;23.414;2023-04-04T03:29:47;92995.56;;;8.18;96.97
42705;BME280;28342;42.594;23.414;2023-04-04T03:32:13;92991.94;;;8.23;97.07
42705;BME280;28342;42.594;23.414;2023-04-04T03:34:38;92991.25;;;8.01;98.29
42705;BME280;28342;42.594;23.414;2023-04-04T03:37:04;92998.72;;;7.99;98.83
42705;BME280;28342;42.594;23.414;2023-04-04T03:39:29;92977.66;;;7.66;99.74
42705;BME280;28342;42.594;23.414;2023-04-04T03:41:55;92997.81;;;7.83;99.34
42705;BME280;28342;42.594;23.414;2023-04-04T03:44:22;93002.72;;;7.72;100.00
42705;BME280;28342;42.594;23.414;2023-04-04T03:46:47;92993.53;;;7.58;100.00
42705;BME280;28342;42.594;23.414;2023-04-04T03:49:12;93004.97;;;7.62;100.00
42705;BME280;28342;42.594;23.414;2023-04-04T03:51:38;92984.53;;;7.59;100.00
42705;BME280;28342;42.594;23.414;2023-04-04T03:54:03;93004.19;;;7.82;100.00
42705;BME280;28342;42.594;23.414;2023-04-04T03:56:30;92993.75;;;7.86;100.00
42705;BME280;28342;42.594;23.414;2023-04-04T03:58:57;92999.25;;;7.93;100.00
42705;BME280;28342;42.594;23.414;2023-04-04T04:01:22;92999.19;;;8.01;99.85
42705;BME280;28342;42.594;23.414;2023-04-04T04:03:47;93004.63;;;7.96;99.99
42705;BME280;28342;42.594;23.414;2023-04-04T04:06:13;92997.06;;;7.95;99.38
42705;BME280;28342;42.594;23.414;2023-04-04T04:08:38;93009.13;;;7.84;99.68
42705;BME280;28342;42.594;23.414;2023-04-04T04:11:04;93011.50;;;7.97;99.14
42705;BME280;28342;42.594;23.414;2023-04-04T04:13:30;93008.59;;;7.90;98.47
42705;BME280;28342;42.594;23.414;2023-04-04T04:15:56;93012.13;;;7.94;98.39
42705;BME280;28342;42.594;23.414;2023-04-04T04:18:21;93015.34;;;8.00;98.13
42705;BME280;28342;42.594;23.414;2023-04-04T04:20:47;93013.81;;;7.99;97.92
42705;BME280;28342;42.594;23.414;2023-04-04T04:23:12;93020.47;;;7.96;98.34
42705;BME280;28342;42.594;23.414;2023-04-04T04:25:37;93017.41;;;7.94;98.33
42705;BME280;28342;42.594;23.414;2023-04-04T04:28:03;93025.53;;;7.89;99.76
42705;BME280;28342;42.594;23.414;2023-04-04T04:30:28;93024.88;;;7.92;100.00
42705;BME280;28342;42.594;23.414;2023-04-04T04:32:54;93018.59;;;7.85;100.00
42705;BME280;28342;42.594;23.414;2023-04-04T04:35:20;93011.09;;;7.74;100.00
42705;BME280;28342;42.594;23.414;2023-04-04T04:37:45;93027.69;;;7.75;100.00
42705;BME280;28342;42.594;23.414;2023-04-04T04:40:11;93015.91;;;7.72;100.00
42705;BME280;28342;42.594;23.414;2023-04-04T04:42:43;93044.56;;;7.95;100.00
42705;BME280;28342;42.594;23.414;2023-04-04T04:45:09;93042.53;;;8.00;100.00
42705;BME280;28342;42.594;23.414;2023-04-04T04:47:36;93039.22;;;8.03;100.00
42705;BME280;28342;42.594;23.414;2023-04-04T04:50:02;93040.09;;;8.07;100.00
42705;BME280;28342;42.594;23.414;2023-04-04T04:52:27;93039.16;;;8.12;100.00
42705;BME280;28342;42.594;23.414;2023-04-04T04:54:55;93036.03;;;8.10;100.00
42705;BME280;28342;42.594;23.414;2023-04-04T04:57:21;93028.78;;;8.07;100.00
42705;BME280;28342;42.594;23.414;2023-04-04T04:59:47;93050.94;;;8.27;100.00
42705;BME280;28342;42.594;23.414;2023-04-04T05:02:12;93060.97;;;8.33;100.00
42705;BME280;28342;42.594;23.414;2023-04-04T05:04:38;93055.06;;;8.36;100.00
42705;BME280;28342;42.594;23.414;2023-04-04T05:07:05;93056.28;;;8.39;100.00
42705;BME280;28342;42.594;23.414;2023-04-04T05:09:32;93057.56;;;8.33;100.00
42705;BME280;28342;42.594;23.414;2023-04-04T05:11:58;93064.34;;;8.43;100.00
42705;BME280;28342;42.594;23.414;2023-04-04T05:14:23;93075.88;;;8.50;100.00
42705;BME280;28342;42.594;23.414;2023-04-04T05:16:49;93070.59;;;8.50;100.00
42705;BME280;28342;42.594;23.414;2023-04-04T05:19:14;93069.94;;;8.53;100.00
42705;BME280;28342;42.594;23.414;2023-04-04T05:21:39;93064.97;;;8.39;100.00
42705;BME280;28342;42.594;23.414;2023-04-04T05:24:05;93065.09;;;8.43;100.00
42705;BME280;28342;42.594;23.414;2023-04-04T05:26:30;93085.13;;;8.56;100.00
42705;BME280;28342;42.594;23.414;2023-04-04T05:28:56;93079.84;;;8.56;100.00
42705;BME280;28342;42.594;23.414;2023-04-04T05:31:23;93073.94;;;8.59;100.00
42705;BME280;28342;42.594;23.414;2023-04-04T05:33:49;93080.09;;;8.63;100.00
42705;BME280;28342;42.594;23.414;2023-04-04T05:36:14;93089.78;;;8.72;100.00
42705;BME280;28342;42.594;23.414;2023-04-04T05:38:40;93084.97;;;8.74;99.99
42705;BME280;28342;42.594;23.414;2023-04-04T05:41:05;93088.03;;;8.76;100.00
42705;BME280;28342;42.594;23.414;2023-04-04T05:43:31;93071.41;;;8.75;100.00
42705;BME280;28342;42.594;23.414;2023-04-04T05:45:56;93084.75;;;8.91;99.79
42705;BME280;28342;42.594;23.414;2023-04-04T05:48:22;93067.00;;;8.79;99.32
42705;BME280;28342;42.594;23.414;2023-04-04T05:50:47;93079.47;;;8.91;98.59
42705;BME280;28342;42.594;23.414;2023-04-04T05:53:13;93078.78;;;8.94;99.17
42705;BME280;28342;42.594;23.414;2023-04-04T05:55:38;93082.75;;;8.88;100.00
42705;BME280;28342;42.594;23.414;2023-04-04T05:58:03;93087.72;;;8.89;100.00
42705;BME280;28342;42.594;23.414;2023-04-04T06:00:29;93070.75;;;8.90;100.00
42705;BME280;28342;42.594;23.414;2023-04-04T06:02:58;93059.59;;;8.85;100.00
42705;BME280;28342;42.594;23.414;2023-04-04T06:05:24;93074.50;;;8.89;99.97
42705;BME280;28342;42.594;23.414;2023-04-04T06:07:49;93081.19;;;8.99;99.59
42705;BME280;28342;42.594;23.414;2023-04-04T06:10:15;93093.75;;;9.14;99.96
42705;BME280;28342;42.594;23.414;2023-04-04T06:12:40;93084.06;;;9.18;100.00
42705;BME280;28342;42.594;23.414;2023-04-04T06:15:06;93084.72;;;9.27;100.00
42705;BME280;28342;42.594;23.414;2023-04-04T06:17:32;93085.16;;;9.29;100.00
42705;BME280;28342;42.594;23.414;2023-04-04T06:19:57;93076.09;;;9.31;100.00
42705;BME280;28342;42.594;23.414;2023-04-04T06:22:23;93090.88;;;9.44;100.00
42705;BME280;28342;42.594;23.414;2023-04-04T06:24:48;93092.84;;;9.47;100.00
42705;BME280;28342;42.594;23.414;2023-04-04T06:27:14;93096.56;;;9.58;100.00
42705;BME280;28342;42.594;23.414;2023-04-04T06:29:39;93092.84;;;9.47;100.00
42705;BME280;28342;42.594;23.414;2023-04-04T06:32:05;93112.69;;;9.65;100.00
42705;BME280;28342;42.594;23.414;2023-04-04T06:34:31;93107.56;;;9.72;99.43
42705;BME280;28342;42.594;23.414;2023-04-04T06:36:56;93106.59;;;9.65;98.35
42705;BME280;28342;42.594;23.414;2023-04-04T06:39:22;93129.88;;;9.71;98.45
42705;BME280;28342;42.594;23.414;2023-04-04T06:41:47;93113.63;;;9.73;98.00
42705;BME280;28342;42.594;23.414;2023-04-04T06:44:13;93136.34;;;9.86;98.53
42705;BME280;28342;42.594;23.414;2023-04-04T06:46:38;93126.75;;;9.81;100.00
42705;BME280;28342;42.594;23.414;2023-04-04T06:49:04;93124.13;;;9.69;99.93
42705;BME280;28342;42.594;23.414;2023-04-04T06:51:32;93118.09;;;9.56;98.84
42705;BME280;28342;42.594;23.414;2023-04-04T06:53:57;93140.66;;;9.78;97.72
42705;BME280;28342;42.594;23.414;2023-04-04T06:56:24;93147.19;;;9.81;96.46
42705;BME280;28342;42.594;23.414;2023-04-04T06:58:51;93127.13;;;9.68;97.14
42705;BME280;28342;42.594;23.414;2023-04-04T07:01:19;93148.16;;;9.76;97.75
42705;BME280;28342;42.594;23.414;2023-04-04T07:03:44;93147.72;;;9.74;96.68
42705;BME280;28342;42.594;23.414;2023-04-04T07:06:10;93161.19;;;9.69;97.46
42705;BME280;28342;42.594;23.414;2023-04-04T07:08:35;93165.41;;;9.58;98.22
42705;BME280;28342;42.594;23.414;2023-04-04T07:11:01;93171.25;;;9.51;98.28
42705;BME280;28342;42.594;23.414;2023-04-04T07:13:34;93194.72;;;9.16;96.23
42705;BME280;28342;42.594;23.414;2023-04-04T07:15:59;93185.41;;;8.74;91.83
42705;BME280;28342;42.594;23.414;2023-04-04T07:18:26;93203.16;;;8.52;90.97
42705;BME280;28342;42.594;23.414;2023-04-04T07:20:51;93203.69;;;8.25;88.57
42705;BME280;28342;42.594;23.414;2023-04-04T07:23:17;93223.97;;;7.91;88.32
42705;BME280;28342;42.594;23.414;2023-04-04T07:25:42;93202.19;;;7.53;90.72
42705;BME280;28342;42.594;23.414;2023-04-04T07:28:08;93217.81;;;7.28;89.72
42705;BME280;28342;42.594;23.414;2023-04-04T07:30:33;93203.69;;;6.86;92.34
42705;BME280;28342;42.594;23.414;2023-04-04T07:32:59;93215.94;;;6.82;92.86
42705;BME280;28342;42.594;23.414;2023-04-04T07:35:24;93232.66;;;6.95;93.85
42705;BME280;28342;42.594;23.414;2023-04-04T07:37:50;93234.09;;;6.83;92.93
42705;BME280;28342;42.594;23.414;2023-04-04T07:40:16;93238.44;;;6.79;92.90
42705;BME280;28342;42.594;23.414;2023-04-04T07:42:43;93236.91;;;6.78;92.49
42705;BME280;28342;42.594;23.414;2023-04-04T07:45:10;93237.38;;;6.63;92.21
42705;BME280;28342;42.594;23.414;2023-04-04T07:47:35;93240.16;;;6.58;92.07
42705;BME280;28342;42.594;23.414;2023-04-04T07:50:02;93249.81;;;6.37;93.46
42705;BME280;28342;42.594;23.414;2023-04-04T07:52:28;93256.94;;;6.19;93.28
42705;BME280;28342;42.594;23.414;2023-04-04T07:54:53;93260.63;;;6.09;93.45
42705;BME280;28342;42.594;23.414;2023-04-04T07:57:19;93247.72;;;5.82;93.90
42705;BME280;28342;42.594;23.414;2023-04-04T07:59:44;93241.53;;;5.69;94.86
42705;BME280;28342;42.594;23.414;2023-04-04T08:02:10;93278.41;;;5.95;93.39
42705;BME280;28342;42.594;23.414;2023-04-04T08:04:35;93279.47;;;5.85;91.69
42705;BME280;28342;42.594;23.414;2023-04-04T08:07:01;93280.06;;;5.74;92.01
42705;BME280;28342;42.594;23.414;2023-04-04T08:09:26;93285.44;;;5.60;94.14
42705;BME280;28342;42.594;23.414;2023-04-04T08:11:58;93305.69;;;5.59;92.58
42705;BME280;28342;42.594;23.414;2023-04-04T08:14:23;93306.97;;;5.31;92.95
42705;BME280;28342;42.594;23.414;2023-04-04T08:16:49;93313.94;;;5.35;92.64
42705;BME280;28342;42.594;23.414;2023-04-04T08:19:15;93316.63;;;5.13;93.76
42705;BME280;28342;42.594;23.414;2023-04-04T08:21:41;93324.59;;;5.22;96.29
42705;BME280;28342;42.594;23.414;2023-04-04T08:24:08;93320.03;;;5.14;94.45
42705;BME280;28342;42.594;23.414;2023-04-04T08:26:34;93330.69;;;5.08;94.41
42705;BME280;28342;42.594;23.414;2023-04-04T08:28:59;93338.31;;;5.19;94.20
42705;BME280;28342;42.594;23.414;2023-04-04T08:31:26;93326.88;;;4.92;93.79
42705;BME280;28342;42.594;23.414;2023-04-04T08:33:52;93319.09;;;4.87;95.59
42705;BME280;28342;42.594;23.414;2023-04-04T08:36:17;93335.34;;;5.12;95.46
42705;BME280;28342;42.594;23.414;2023-04-04T08:38:43;93306.59;;;4.62;95.68
42705;BME280;28342;42.594;23.414;2023-04-04T08:41:10;93337.25;;;4.97;95.03
42705;BME280;28342;42.594;23.414;2023-04-04T08:43:38;93342.38;;;5.02;96.42
42705;BME280;28342;42.594;23.414;2023-04-04T08:46:06;93318.81;;;4.66;95.43
42705;BME280;28342;42.594;23.414;2023-04-04T08:48:34;93347.66;;;5.02;98.34
42705;BME280;28342;42.594;23.414;2023-04-04T08:51:02;93333.63;;;5.07;97.18
42705;BME280;28342;42.594;23.414;2023-04-04T08:53:31;93345.59;;;5.22;96.57
42705;BME280;28342;42.594;23.414;2023-04-04T08:55:59;93342.47;;;5.20;94.54
42705;BME280;28342;42.594;23.414;2023-04-04T08:58:25;93348.25;;;5.22;94.81
42705;BME280;28342;42.594;23.414;2023-04-04T09:00:52;93341.38;;;5.12;95.26
42705;BME280;28342;42.594;23.414;2023-04-04T09:03:25;93339.47;;;5.04;95.07
42705;BME280;28342;42.594;23.414;2023-04-04T09:05:53;93362.53;;;5.07;95.79
42705;BME280;28342;42.594;23.414;2023-04-04T09:08:20;93368.66;;;5.02;96.55
42705;BME280;28342;42.594;23.414;2023-04-04T09:10:45;93352.66;;;5.13;94.99
42705;BME280;28342;42.594;23.414;2023-04-04T09:13:12;93367.28;;;5.27;95.92
42705;BME280;28342;42.594;23.414;2023-04-04T09:15:39;93364.13;;;5.17;96.28
42705;BME280;28342;42.594;23.414;2023-04-04T09:18:06;93351.88;;;5.12;96.85
42705;BME280;28342;42.594;23.414;2023-04-04T09:20:40;93337.81;;;5.08;97.05
42705;BME280;28342;42.594;23.414;2023-04-04T09:23:11;93352.13;;;5.02;94.48
42705;BME280;28342;42.594;23.414;2023-04-04T09:25:53;93365.34;;;5.10;94.81
42705;BME280;28342;42.594;23.414;2023-04-04T09:28:20;93364.66;;;5.27;95.43
42705;BME280;28342;42.594;23.414;2023-04-04T09:30:49;93355.53;;;5.25;95.54
42705;BME280;28342;42.594;23.414;2023-04-04T09:33:17;93353.69;;;5.34;95.30
42705;BME280;28342;42.594;23.414;2023-04-04T09:35:44;93364.56;;;5.41;93.60
42705;BME280;28342;42.594;23.414;2023-04-04T09:38:10;93362.69;;;5.10;94.47
42705;BME280;28342;42.594;23.414;2023-04-04T09:40:36;93346.97;;;5.19;95.37
42705;BME280;28342;42.594;23.414;2023-04-04T09:43:05;93361.13;;;5.32;94.11
42705;BME280;28342;42.594;23.414;2023-04-04T09:45:33;93367.31;;;5.36;92.97
42705;BME280;28342;42.594;23.414;2023-04-04T09:48:00;93362.16;;;5.53;93.53
42705;BME280;28342;42.594;23.414;2023-04-04T09:50:25;93365.50;;;5.45;92.37
42705;BME280;28342;42.594;23.414;2023-04-04T09:52:55;93354.13;;;5.58;94.11
42705;BME280;28342;42.594;23.414;2023-04-04T09:55:30;93382.31;;;5.66;91.73
42705;BME280;28342;42.594;23.414;2023-04-04T09:57:56;93345.94;;;5.60;93.55
42705;BME280;28342;42.594;23.414;2023-04-04T10:00:21;93366.38;;;5.63;94.49
42705;BME280;28342;42.594;23.414;2023-04-04T10:02:47;93356.28;;;5.56;93.67
42705;BME280;28342;42.594;23.414;2023-04-04T10:05:13;93370.16;;;5.48;92.31
42705;BME280;28342;42.594;23.414;2023-04-04T10:07:39;93387.78;;;5.48;89.83
42705;BME280;28342;42.594;23.414;2023-04-04T10:10:07;93388.34;;;5.36;90.70
42705;BME280;28342;42.594;23.414;2023-04-04T10:12:36;93392.50;;;5.28;92.63
42705;BME280;28342;42.594;23.414;2023-04-04T10:15:09;93397.69;;;5.20;91.52
42705;BME280;28342;42.594;23.414;2023-04-04T10:17:39;93388.13;;;5.01;91.48
42705;BME280;28342;42.594;23.414;2023-04-04T10:20:07;93381.50;;;5.04;90.95
42705;BME280;28342;42.594;23.414;2023-04-04T10:22:37;93388.31;;;5.05;92.17
42705;BME280;28342;42.594;23.414;2023-04-04T10:25:06;93391.44;;;5.07;90.09
42705;BME280;28342;42.594;23.414;2023-04-04T10:27:35;93407.38;;;5.10;89.49
42705;BME280;28342;42.594;23.414;2023-04-04T10:30:03;93410.81;;;5.20;91.33
42705;BME280;28342;42.594;23.414;2023-04-04T10:32:39;93395.31;;;5.09;90.38
42705;BME280;28342;42.594;23.414;2023-04-04T10:35:08;93389.69;;;5.02;92.07
42705;BME280;28342;42.594;23.414;2023-04-04T10:37:53;93409.03;;;5.29;90.84
42705;BME280;28342;42.594;23.414;2023-04-04T10:40:23;93394.38;;;5.05;88.19
42705;BME280;28342;42.594;23.414;2023-04-04T10:42:52;93424.03;;;5.28;89.71
42705;BME280;28342;42.594;23.414;2023-04-04T10:45:19;93424.94;;;5.24;86.91
42705;BME280;28342;42.594;23.414;2023-04-04T10:47:45;93410.13;;;5.05;87.94
42705;BME280;28342;42.594;23.414;2023-04-04T10:50:14;93432.34;;;4.99;88.08
42705;BME280;28342;42.594;23.414;2023-04-04T10:52:42;93430.38;;;5.05;88.96
42705;BME280;28342;42.594;23.414;2023-04-04T10:55:12;93423.50;;;5.18;88.26
42705;BME280;28342;42.594;23.414;2023-04-04T10:57:56;93421.84;;;5.22;89.79
42705;BME280;28342;42.594;23.414;2023-04-04T11:00:22;93406.78;;;5.14;88.16
42705;BME280;28342;42.594;23.414;2023-04-04T11:07:47;93411.44;;;5.17;88.90
42705;BME280;28342;42.594;23.414;2023-04-04T11:10:19;93443.00;;;5.39;86.78
42705;BME280;28342;42.594;23.414;2023-04-04T11:12:45;93427.50;;;5.15;85.34
42705;BME280;28342;42.594;23.414;2023-04-04T11:15:12;93427.81;;;5.14;85.73
42705;BME280;28342;42.594;23.414;2023-04-04T11:20:35;93453.25;;;5.27;84.02
42705;BME280;28342;42.594;23.414;2023-04-04T11:23:03;93457.50;;;5.14;84.40
42705;BME280;28342;42.594;23.414;2023-04-04T11:25:36;93446.50;;;5.12;85.23
42705;BME280;28342;42.594;23.414;2023-04-04T11:28:13;93457.19;;;5.16;86.77
42705;BME280;28342;42.594;23.414;2023-04-04T11:30:41;93437.84;;;5.12;86.93
42705;BME280;28342;42.594;23.414;2023-04-04T11:33:13;93442.03;;;5.13;85.45
42705;BME280;28342;42.594;23.414;2023-04-04T11:35:50;93453.84;;;5.01;86.40
42705;BME280;28342;42.594;23.414;2023-04-04T11:38:15;93441.25;;;5.12;87.16
42705;BME280;28342;42.594;23.414;2023-04-04T11:40:52;93457.44;;;5.28;86.48
42705;BME280;28342;42.594;23.414;2023-04-04T11:43:19;93453.31;;;4.91;84.40
42705;BME280;28342;42.594;23.414;2023-04-04T11:45:45;93430.28;;;4.74;86.79
42705;BME280;28342;42.594;23.414;2023-04-04T11:48:13;93432.97;;;4.83;87.99
42705;BME280;28342;42.594;23.414;2023-04-04T11:50:40;93444.06;;;4.93;86.10
42705;BME280;28342;42.594;23.414;2023-04-04T11:53:07;93443.22;;;5.06;85.44
42705;BME280;28342;42.594;23.414;2023-04-04T11:55:41;93435.88;;;4.95;86.91
42705;BME280;28342;42.594;23.414;2023-04-04T11:58:08;93429.69;;;4.77;87.23
42705;BME280;28342;42.594;23.414;2023-04-04T12:00:35;93433.88;;;4.78;86.41
42705;BME280;28342;42.594;23.414;2023-04-04T12:03:03;93453.00;;;4.92;86.54
42705;BME280;28342;42.594;23.414;2023-04-04T12:05:30;93450.47;;;4.87;85.91
42705;BME280;28342;42.594;23.414;2023-04-04T12:07:55;93439.19;;;4.87;86.06
42705;BME280;28342;42.594;23.414;2023-04-04T12:10:24;93435.69;;;4.91;86.68
42705;BME280;28342;42.594;23.414;2023-04-04T12:12:54;93453.13;;;5.09;86.78
42705;BME280;28342;42.594;23.414;2023-04-04T12:15:21;93423.38;;;4.78;87.59
42705;BME280;28342;42.594;23.414;2023-04-04T12:17:47;93453.56;;;4.89;87.68
42705;BME280;28342;42.594;23.414;2023-04-04T12:20:16;93455.72;;;4.87;86.84
42705;BME280;28342;42.594;23.414;2023-04-04T12:22:42;93442.25;;;4.80;86.23
42705;BME280;28342;42.594;23.414;2023-04-04T12:25:08;93449.25;;;4.71;86.31
42705;BME280;28342;42.594;23.414;2023-04-04T12:27:35;93464.94;;;4.76;85.32
42705;BME280;28342;42.594;23.414;2023-04-04T12:30:02;93448.97;;;4.59;86.55
42705;BME280;28342;42.594;23.414;2023-04-04T12:32:29;93466.88;;;4.70;86.67
42705;BME280;28342;42.594;23.414;2023-04-04T12:34:59;93470.25;;;4.71;87.44
42705;BME280;28342;42.594;23.414;2023-04-04T12:37:27;93431.66;;;4.58;88.63
42705;BME280;28342;42.594;23.414;2023-04-04T12:39:54;93452.59;;;4.63;88.64
42705;BME280;28342;42.594;23.414;2023-04-04T12:42:21;93466.41;;;4.55;89.77
42705;BME280;28342;42.594;23.414;2023-04-04T12:44:51;93472.16;;;4.43;87.09
42705;BME280;28342;42.594;23.414;2023-04-04T12:47:18;93478.19;;;4.43;87.59
42705;BME280;28342;42.594;23.414;2023-04-04T12:49:47;93483.47;;;4.30;90.68
42705;BME280;28342;42.594;23.414;2023-04-04T12:52:17;93472.56;;;4.09;88.99
42705;BME280;28342;42.594;23.414;2023-04-04T12:54:45;93485.97;;;4.35;91.26
42705;BME280;28342;42.594;23.414;2023-04-04T12:57:17;93480.53;;;4.17;90.52
42705;BME280;28342;42.594;23.414;2023-04-04T12:59:44;93493.19;;;4.15;90.42
42705;BME280;28342;42.594;23.414;2023-04-04T13:02:14;93493.94;;;4.16;89.63
42705;BME280;28342;42.594;23.414;2023-04-04T13:04:44;93500.34;;;3.96;90.75
42705;BME280;28342;42.594;23.414;2023-04-04T13:07:39;93511.13;;;3.95;92.57